<?xml version="1.0" encoding="UTF-8" standalone="no" ?>
<gpx xmlns="http://www.topografix.com/GPX/1/1" xmlns:xsi="http://www.w3.org/2001/XMLSchema-instance" xsi:schemaLocation="http://www.topografix.com/GPX/1/1 http://www.topografix.com/GPX/1/1/gpx.xsd" version="1.1" creator="VisuGPX - https://www.visugpx.com">
  <metadata>
    <name>Labyrinthe Pop corn</name>
    <desc><![CDATA[Circuit réalisé le samedi 5 août 2017 avec Morgan et Charly au Labyrinthe Popcorn de Guérande]]></desc>
  </metadata>
  <trk>
    <name><![CDATA[LAYAOU-17 15:33:04]]></name>
    <trkseg>
      <trkpt lat="47.33819" lon="-2.41734">
        <ele>42.44</ele>
        <time>2017-08-05T12:43:32Z</time>
      </trkpt>
      <trkpt lat="47.33821" lon="-2.41731">
        <ele>42.44</ele>
        <time>2017-08-05T12:43:59Z</time>
      </trkpt>
      <trkpt lat="47.33822" lon="-2.4173">
        <ele>42.44</ele>
        <time>2017-08-05T12:44:01Z</time>
      </trkpt>
      <trkpt lat="47.33827" lon="-2.41722">
        <ele>41.95</ele>
        <time>2017-08-05T12:44:16Z</time>
      </trkpt>
      <trkpt lat="47.33831" lon="-2.41721">
        <ele>41.47</ele>
        <time>2017-08-05T12:44:38Z</time>
      </trkpt>
      <trkpt lat="47.33837" lon="-2.41727">
        <ele>40.99</ele>
        <time>2017-08-05T12:44:48Z</time>
      </trkpt>
      <trkpt lat="47.33841" lon="-2.41732">
        <ele>40.51</ele>
        <time>2017-08-05T12:44:53Z</time>
      </trkpt>
      <trkpt lat="47.33843" lon="-2.41738">
        <ele>40.51</ele>
        <time>2017-08-05T12:44:59Z</time>
      </trkpt>
      <trkpt lat="47.33847" lon="-2.41739">
        <ele>40.03</ele>
        <time>2017-08-05T12:45:03Z</time>
      </trkpt>
      <trkpt lat="47.33851" lon="-2.41736">
        <ele>40.51</ele>
        <time>2017-08-05T12:45:18Z</time>
      </trkpt>
      <trkpt lat="47.33854" lon="-2.41739">
        <ele>41.47</ele>
        <time>2017-08-05T12:45:25Z</time>
      </trkpt>
      <trkpt lat="47.3386" lon="-2.4174">
        <ele>41.95</ele>
        <time>2017-08-05T12:45:32Z</time>
      </trkpt>
      <trkpt lat="47.33859" lon="-2.41745">
        <ele>42.44</ele>
        <time>2017-08-05T12:45:35Z</time>
      </trkpt>
      <trkpt lat="47.3386" lon="-2.41748">
        <ele>42.44</ele>
        <time>2017-08-05T12:45:37Z</time>
      </trkpt>
      <trkpt lat="47.33871" lon="-2.41757">
        <ele>43.4</ele>
        <time>2017-08-05T12:45:50Z</time>
      </trkpt>
      <trkpt lat="47.33882" lon="-2.41766">
        <ele>40.99</ele>
        <time>2017-08-05T12:46:03Z</time>
      </trkpt>
      <trkpt lat="47.33889" lon="-2.41757">
        <ele>41.47</ele>
        <time>2017-08-05T12:46:13Z</time>
      </trkpt>
      <trkpt lat="47.33889" lon="-2.41757">
        <ele>41.95</ele>
        <time>2017-08-05T12:46:14Z</time>
      </trkpt>
      <trkpt lat="47.33897" lon="-2.41742">
        <ele>41.95</ele>
        <time>2017-08-05T12:46:25Z</time>
      </trkpt>
      <trkpt lat="47.33899" lon="-2.41739">
        <ele>41.47</ele>
        <time>2017-08-05T12:46:28Z</time>
      </trkpt>
      <trkpt lat="47.33902" lon="-2.41739">
        <ele>41.47</ele>
        <time>2017-08-05T12:46:41Z</time>
      </trkpt>
      <trkpt lat="47.33903" lon="-2.41739">
        <ele>40.99</ele>
        <time>2017-08-05T12:46:56Z</time>
      </trkpt>
      <trkpt lat="47.33903" lon="-2.41739">
        <ele>40.03</ele>
        <time>2017-08-05T12:47:13Z</time>
      </trkpt>
      <trkpt lat="47.33902" lon="-2.41739">
        <ele>39.55</ele>
        <time>2017-08-05T12:47:32Z</time>
      </trkpt>
      <trkpt lat="47.33902" lon="-2.41738">
        <ele>39.55</ele>
        <time>2017-08-05T12:47:50Z</time>
      </trkpt>
      <trkpt lat="47.33902" lon="-2.41738">
        <ele>39.07</ele>
        <time>2017-08-05T12:48:06Z</time>
      </trkpt>
      <trkpt lat="47.33902" lon="-2.41738">
        <ele>38.59</ele>
        <time>2017-08-05T12:48:21Z</time>
      </trkpt>
      <trkpt lat="47.33911" lon="-2.41733">
        <ele>39.55</ele>
        <time>2017-08-05T12:48:30Z</time>
      </trkpt>
      <trkpt lat="47.33916" lon="-2.41724">
        <ele>39.55</ele>
        <time>2017-08-05T12:48:37Z</time>
      </trkpt>
      <trkpt lat="47.33921" lon="-2.41718">
        <ele>40.03</ele>
        <time>2017-08-05T12:48:43Z</time>
      </trkpt>
      <trkpt lat="47.33922" lon="-2.41713">
        <ele>40.03</ele>
        <time>2017-08-05T12:48:48Z</time>
      </trkpt>
      <trkpt lat="47.33922" lon="-2.41707">
        <ele>40.03</ele>
        <time>2017-08-05T12:48:52Z</time>
      </trkpt>
      <trkpt lat="47.33918" lon="-2.41692">
        <ele>40.51</ele>
        <time>2017-08-05T12:49:04Z</time>
      </trkpt>
      <trkpt lat="47.33918" lon="-2.41691">
        <ele>40.03</ele>
        <time>2017-08-05T12:49:05Z</time>
      </trkpt>
      <trkpt lat="47.3392" lon="-2.41681">
        <ele>38.59</ele>
        <time>2017-08-05T12:49:13Z</time>
      </trkpt>
      <trkpt lat="47.33923" lon="-2.41678">
        <ele>38.11</ele>
        <time>2017-08-05T12:49:18Z</time>
      </trkpt>
      <trkpt lat="47.33929" lon="-2.41682">
        <ele>39.07</ele>
        <time>2017-08-05T12:49:25Z</time>
      </trkpt>
      <trkpt lat="47.3393" lon="-2.41688">
        <ele>39.07</ele>
        <time>2017-08-05T12:49:32Z</time>
      </trkpt>
      <trkpt lat="47.33929" lon="-2.4169">
        <ele>38.59</ele>
        <time>2017-08-05T12:49:41Z</time>
      </trkpt>
      <trkpt lat="47.33933" lon="-2.41686">
        <ele>38.59</ele>
        <time>2017-08-05T12:49:46Z</time>
      </trkpt>
      <trkpt lat="47.33936" lon="-2.41687">
        <ele>38.59</ele>
        <time>2017-08-05T12:49:50Z</time>
      </trkpt>
      <trkpt lat="47.3394" lon="-2.41683">
        <ele>40.03</ele>
        <time>2017-08-05T12:49:55Z</time>
      </trkpt>
      <trkpt lat="47.33943" lon="-2.41683">
        <ele>40.99</ele>
        <time>2017-08-05T12:49:58Z</time>
      </trkpt>
      <trkpt lat="47.33949" lon="-2.41679">
        <ele>42.44</ele>
        <time>2017-08-05T12:50:03Z</time>
      </trkpt>
      <trkpt lat="47.33949" lon="-2.41675">
        <ele>42.92</ele>
        <time>2017-08-05T12:50:06Z</time>
      </trkpt>
      <trkpt lat="47.33948" lon="-2.41671">
        <ele>43.4</ele>
        <time>2017-08-05T12:50:09Z</time>
      </trkpt>
      <trkpt lat="47.33957" lon="-2.41657">
        <ele>43.88</ele>
        <time>2017-08-05T12:50:21Z</time>
      </trkpt>
      <trkpt lat="47.33959" lon="-2.41657">
        <ele>43.88</ele>
        <time>2017-08-05T12:50:24Z</time>
      </trkpt>
      <trkpt lat="47.33965" lon="-2.41653">
        <ele>42.44</ele>
        <time>2017-08-05T12:50:32Z</time>
      </trkpt>
      <trkpt lat="47.33966" lon="-2.41635">
        <ele>38.59</ele>
        <time>2017-08-05T12:50:46Z</time>
      </trkpt>
      <trkpt lat="47.33973" lon="-2.41629">
        <ele>36.19</ele>
        <time>2017-08-05T12:51:01Z</time>
      </trkpt>
      <trkpt lat="47.33974" lon="-2.41623">
        <ele>35.71</ele>
        <time>2017-08-05T12:51:07Z</time>
      </trkpt>
      <trkpt lat="47.33969" lon="-2.41619">
        <ele>35.71</ele>
        <time>2017-08-05T12:51:13Z</time>
      </trkpt>
      <trkpt lat="47.33968" lon="-2.41612">
        <ele>34.74</ele>
        <time>2017-08-05T12:51:18Z</time>
      </trkpt>
      <trkpt lat="47.33964" lon="-2.41607">
        <ele>34.26</ele>
        <time>2017-08-05T12:51:22Z</time>
      </trkpt>
      <trkpt lat="47.33958" lon="-2.41608">
        <ele>31.86</ele>
        <time>2017-08-05T12:51:36Z</time>
      </trkpt>
      <trkpt lat="47.33957" lon="-2.41608">
        <ele>31.38</ele>
        <time>2017-08-05T12:51:57Z</time>
      </trkpt>
      <trkpt lat="47.33957" lon="-2.41611">
        <ele>31.38</ele>
        <time>2017-08-05T12:51:59Z</time>
      </trkpt>
      <trkpt lat="47.33955" lon="-2.41616">
        <ele>31.38</ele>
        <time>2017-08-05T12:52:03Z</time>
      </trkpt>
      <trkpt lat="47.33951" lon="-2.41616">
        <ele>31.86</ele>
        <time>2017-08-05T12:52:07Z</time>
      </trkpt>
      <trkpt lat="47.33947" lon="-2.4162">
        <ele>31.86</ele>
        <time>2017-08-05T12:52:12Z</time>
      </trkpt>
      <trkpt lat="47.33944" lon="-2.41618">
        <ele>31.38</ele>
        <time>2017-08-05T12:52:16Z</time>
      </trkpt>
      <trkpt lat="47.33942" lon="-2.41609">
        <ele>29.94</ele>
        <time>2017-08-05T12:52:23Z</time>
      </trkpt>
      <trkpt lat="47.33941" lon="-2.41601">
        <ele>28.5</ele>
        <time>2017-08-05T12:52:29Z</time>
      </trkpt>
      <trkpt lat="47.33934" lon="-2.41598">
        <ele>27.05</ele>
        <time>2017-08-05T12:52:42Z</time>
      </trkpt>
      <trkpt lat="47.33932" lon="-2.41596">
        <ele>27.53</ele>
        <time>2017-08-05T12:52:59Z</time>
      </trkpt>
      <trkpt lat="47.33929" lon="-2.41596">
        <ele>28.5</ele>
        <time>2017-08-05T12:53:16Z</time>
      </trkpt>
      <trkpt lat="47.33932" lon="-2.41594">
        <ele>28.98</ele>
        <time>2017-08-05T12:53:56Z</time>
      </trkpt>
      <trkpt lat="47.33932" lon="-2.41594">
        <ele>29.46</ele>
        <time>2017-08-05T12:54:12Z</time>
      </trkpt>
      <trkpt lat="47.33931" lon="-2.41595">
        <ele>29.94</ele>
        <time>2017-08-05T12:54:36Z</time>
      </trkpt>
      <trkpt lat="47.33931" lon="-2.41593">
        <ele>29.94</ele>
        <time>2017-08-05T12:54:52Z</time>
      </trkpt>
      <trkpt lat="47.33931" lon="-2.41593">
        <ele>30.9</ele>
        <time>2017-08-05T12:55:22Z</time>
      </trkpt>
      <trkpt lat="47.33931" lon="-2.41593">
        <ele>30.9</ele>
        <time>2017-08-05T12:55:42Z</time>
      </trkpt>
      <trkpt lat="47.3393" lon="-2.41593">
        <ele>30.9</ele>
        <time>2017-08-05T12:56:14Z</time>
      </trkpt>
      <trkpt lat="47.33931" lon="-2.41593">
        <ele>31.38</ele>
        <time>2017-08-05T12:56:47Z</time>
      </trkpt>
      <trkpt lat="47.33931" lon="-2.41594">
        <ele>31.38</ele>
        <time>2017-08-05T12:57:12Z</time>
      </trkpt>
      <trkpt lat="47.33928" lon="-2.41593">
        <ele>31.86</ele>
        <time>2017-08-05T12:57:30Z</time>
      </trkpt>
      <trkpt lat="47.33924" lon="-2.41589">
        <ele>31.38</ele>
        <time>2017-08-05T12:57:36Z</time>
      </trkpt>
      <trkpt lat="47.3392" lon="-2.41587">
        <ele>31.86</ele>
        <time>2017-08-05T12:57:40Z</time>
      </trkpt>
      <trkpt lat="47.33911" lon="-2.41585">
        <ele>30.9</ele>
        <time>2017-08-05T12:57:49Z</time>
      </trkpt>
      <trkpt lat="47.33906" lon="-2.41584">
        <ele>29.94</ele>
        <time>2017-08-05T12:57:53Z</time>
      </trkpt>
      <trkpt lat="47.33902" lon="-2.41592">
        <ele>29.46</ele>
        <time>2017-08-05T12:58:00Z</time>
      </trkpt>
      <trkpt lat="47.33887" lon="-2.41596">
        <ele>28.98</ele>
        <time>2017-08-05T12:58:15Z</time>
      </trkpt>
      <trkpt lat="47.33887" lon="-2.41597">
        <ele>28.98</ele>
        <time>2017-08-05T12:58:16Z</time>
      </trkpt>
      <trkpt lat="47.33882" lon="-2.41602">
        <ele>28.98</ele>
        <time>2017-08-05T12:58:24Z</time>
      </trkpt>
      <trkpt lat="47.33878" lon="-2.41608">
        <ele>29.46</ele>
        <time>2017-08-05T12:58:31Z</time>
      </trkpt>
      <trkpt lat="47.33881" lon="-2.41613">
        <ele>29.46</ele>
        <time>2017-08-05T12:58:37Z</time>
      </trkpt>
      <trkpt lat="47.3388" lon="-2.41619">
        <ele>29.46</ele>
        <time>2017-08-05T12:58:42Z</time>
      </trkpt>
      <trkpt lat="47.33877" lon="-2.41622">
        <ele>28.98</ele>
        <time>2017-08-05T12:58:46Z</time>
      </trkpt>
      <trkpt lat="47.33871" lon="-2.41638">
        <ele>28.5</ele>
        <time>2017-08-05T12:58:59Z</time>
      </trkpt>
      <trkpt lat="47.33871" lon="-2.41638">
        <ele>28.5</ele>
        <time>2017-08-05T12:59:00Z</time>
      </trkpt>
      <trkpt lat="47.33869" lon="-2.41642">
        <ele>28.98</ele>
        <time>2017-08-05T12:59:03Z</time>
      </trkpt>
      <trkpt lat="47.33869" lon="-2.41663">
        <ele>30.9</ele>
        <time>2017-08-05T12:59:17Z</time>
      </trkpt>
      <trkpt lat="47.33871" lon="-2.41671">
        <ele>30.42</ele>
        <time>2017-08-05T12:59:25Z</time>
      </trkpt>
      <trkpt lat="47.33873" lon="-2.41666">
        <ele>30.42</ele>
        <time>2017-08-05T12:59:30Z</time>
      </trkpt>
      <trkpt lat="47.33872" lon="-2.41664">
        <ele>30.42</ele>
        <time>2017-08-05T12:59:32Z</time>
      </trkpt>
      <trkpt lat="47.3387" lon="-2.41662">
        <ele>30.42</ele>
        <time>2017-08-05T12:59:36Z</time>
      </trkpt>
      <trkpt lat="47.33872" lon="-2.41645">
        <ele>30.42</ele>
        <time>2017-08-05T12:59:48Z</time>
      </trkpt>
      <trkpt lat="47.3387" lon="-2.41639">
        <ele>30.9</ele>
        <time>2017-08-05T12:59:53Z</time>
      </trkpt>
      <trkpt lat="47.33872" lon="-2.41634">
        <ele>30.9</ele>
        <time>2017-08-05T12:59:58Z</time>
      </trkpt>
      <trkpt lat="47.33884" lon="-2.41638">
        <ele>31.86</ele>
        <time>2017-08-05T13:00:12Z</time>
      </trkpt>
      <trkpt lat="47.33888" lon="-2.41644">
        <ele>31.86</ele>
        <time>2017-08-05T13:00:20Z</time>
      </trkpt>
      <trkpt lat="47.33885" lon="-2.41647">
        <ele>31.38</ele>
        <time>2017-08-05T13:00:31Z</time>
      </trkpt>
      <trkpt lat="47.33883" lon="-2.41666">
        <ele>31.38</ele>
        <time>2017-08-05T13:00:45Z</time>
      </trkpt>
      <trkpt lat="47.33886" lon="-2.41676">
        <ele>31.38</ele>
        <time>2017-08-05T13:00:56Z</time>
      </trkpt>
      <trkpt lat="47.33881" lon="-2.41677">
        <ele>31.38</ele>
        <time>2017-08-05T13:01:01Z</time>
      </trkpt>
      <trkpt lat="47.33876" lon="-2.41688">
        <ele>32.34</ele>
        <time>2017-08-05T13:01:12Z</time>
      </trkpt>
      <trkpt lat="47.33874" lon="-2.41688">
        <ele>32.82</ele>
        <time>2017-08-05T13:01:31Z</time>
      </trkpt>
      <trkpt lat="47.33875" lon="-2.41691">
        <ele>34.26</ele>
        <time>2017-08-05T13:01:47Z</time>
      </trkpt>
      <trkpt lat="47.33875" lon="-2.41692">
        <ele>34.74</ele>
        <time>2017-08-05T13:02:13Z</time>
      </trkpt>
      <trkpt lat="47.33875" lon="-2.41692">
        <ele>35.23</ele>
        <time>2017-08-05T13:02:37Z</time>
      </trkpt>
      <trkpt lat="47.33875" lon="-2.41692">
        <ele>35.23</ele>
        <time>2017-08-05T13:03:07Z</time>
      </trkpt>
      <trkpt lat="47.33875" lon="-2.41692">
        <ele>35.23</ele>
        <time>2017-08-05T13:03:35Z</time>
      </trkpt>
      <trkpt lat="47.33875" lon="-2.41692">
        <ele>35.23</ele>
        <time>2017-08-05T13:03:53Z</time>
      </trkpt>
      <trkpt lat="47.33865" lon="-2.41687">
        <ele>34.74</ele>
        <time>2017-08-05T13:04:05Z</time>
      </trkpt>
      <trkpt lat="47.33862" lon="-2.41682">
        <ele>34.26</ele>
        <time>2017-08-05T13:04:10Z</time>
      </trkpt>
      <trkpt lat="47.33858" lon="-2.41672">
        <ele>32.82</ele>
        <time>2017-08-05T13:04:18Z</time>
      </trkpt>
      <trkpt lat="47.33853" lon="-2.41672">
        <ele>31.86</ele>
        <time>2017-08-05T13:04:23Z</time>
      </trkpt>
      <trkpt lat="47.33848" lon="-2.41676">
        <ele>32.34</ele>
        <time>2017-08-05T13:04:28Z</time>
      </trkpt>
      <trkpt lat="47.33843" lon="-2.41671">
        <ele>32.34</ele>
        <time>2017-08-05T13:04:35Z</time>
      </trkpt>
      <trkpt lat="47.33837" lon="-2.41659">
        <ele>31.86</ele>
        <time>2017-08-05T13:04:43Z</time>
      </trkpt>
      <trkpt lat="47.3383" lon="-2.41662">
        <ele>31.38</ele>
        <time>2017-08-05T13:04:56Z</time>
      </trkpt>
      <trkpt lat="47.3383" lon="-2.41662">
        <ele>31.86</ele>
        <time>2017-08-05T13:05:01Z</time>
      </trkpt>
      <trkpt lat="47.33832" lon="-2.41667">
        <ele>33.78</ele>
        <time>2017-08-05T13:05:05Z</time>
      </trkpt>
      <trkpt lat="47.33834" lon="-2.41677">
        <ele>33.78</ele>
        <time>2017-08-05T13:05:11Z</time>
      </trkpt>
      <trkpt lat="47.33832" lon="-2.41697">
        <ele>34.26</ele>
        <time>2017-08-05T13:05:25Z</time>
      </trkpt>
      <trkpt lat="47.33829" lon="-2.41701">
        <ele>34.26</ele>
        <time>2017-08-05T13:05:40Z</time>
      </trkpt>
      <trkpt lat="47.33829" lon="-2.41701">
        <ele>34.74</ele>
        <time>2017-08-05T13:06:04Z</time>
      </trkpt>
      <trkpt lat="47.33829" lon="-2.41702">
        <ele>34.74</ele>
        <time>2017-08-05T13:06:25Z</time>
      </trkpt>
      <trkpt lat="47.33829" lon="-2.41702">
        <ele>35.23</ele>
        <time>2017-08-05T13:06:51Z</time>
      </trkpt>
      <trkpt lat="47.33829" lon="-2.41702">
        <ele>35.71</ele>
        <time>2017-08-05T13:07:14Z</time>
      </trkpt>
      <trkpt lat="47.33829" lon="-2.41702">
        <ele>35.71</ele>
        <time>2017-08-05T13:07:38Z</time>
      </trkpt>
      <trkpt lat="47.33829" lon="-2.41701">
        <ele>36.19</ele>
        <time>2017-08-05T13:07:59Z</time>
      </trkpt>
      <trkpt lat="47.33829" lon="-2.41702">
        <ele>36.19</ele>
        <time>2017-08-05T13:08:25Z</time>
      </trkpt>
      <trkpt lat="47.33828" lon="-2.41702">
        <ele>35.23</ele>
        <time>2017-08-05T13:08:38Z</time>
      </trkpt>
      <trkpt lat="47.33828" lon="-2.41702">
        <ele>35.71</ele>
        <time>2017-08-05T13:08:59Z</time>
      </trkpt>
      <trkpt lat="47.33828" lon="-2.41701">
        <ele>35.71</ele>
        <time>2017-08-05T13:09:16Z</time>
      </trkpt>
      <trkpt lat="47.33828" lon="-2.41701">
        <ele>36.19</ele>
        <time>2017-08-05T13:09:24Z</time>
      </trkpt>
      <trkpt lat="47.33826" lon="-2.41695">
        <ele>35.71</ele>
        <time>2017-08-05T13:09:29Z</time>
      </trkpt>
      <trkpt lat="47.33822" lon="-2.41689">
        <ele>35.23</ele>
        <time>2017-08-05T13:09:35Z</time>
      </trkpt>
      <trkpt lat="47.33818" lon="-2.41664">
        <ele>35.23</ele>
        <time>2017-08-05T13:09:47Z</time>
      </trkpt>
      <trkpt lat="47.33819" lon="-2.41657">
        <ele>34.74</ele>
        <time>2017-08-05T13:09:51Z</time>
      </trkpt>
      <trkpt lat="47.33819" lon="-2.41652">
        <ele>34.74</ele>
        <time>2017-08-05T13:09:54Z</time>
      </trkpt>
      <trkpt lat="47.33825" lon="-2.41646">
        <ele>35.23</ele>
        <time>2017-08-05T13:10:01Z</time>
      </trkpt>
      <trkpt lat="47.33828" lon="-2.41638">
        <ele>35.23</ele>
        <time>2017-08-05T13:10:07Z</time>
      </trkpt>
      <trkpt lat="47.33828" lon="-2.41627">
        <ele>35.23</ele>
        <time>2017-08-05T13:10:13Z</time>
      </trkpt>
      <trkpt lat="47.33828" lon="-2.41624">
        <ele>34.26</ele>
        <time>2017-08-05T13:10:15Z</time>
      </trkpt>
      <trkpt lat="47.33826" lon="-2.41617">
        <ele>33.3</ele>
        <time>2017-08-05T13:10:20Z</time>
      </trkpt>
      <trkpt lat="47.33827" lon="-2.41607">
        <ele>32.34</ele>
        <time>2017-08-05T13:10:28Z</time>
      </trkpt>
      <trkpt lat="47.33827" lon="-2.41605">
        <ele>32.34</ele>
        <time>2017-08-05T13:10:38Z</time>
      </trkpt>
      <trkpt lat="47.33829" lon="-2.41608">
        <ele>31.38</ele>
        <time>2017-08-05T13:10:42Z</time>
      </trkpt>
      <trkpt lat="47.33833" lon="-2.41605">
        <ele>29.94</ele>
        <time>2017-08-05T13:10:48Z</time>
      </trkpt>
      <trkpt lat="47.33839" lon="-2.416">
        <ele>28.98</ele>
        <time>2017-08-05T13:10:58Z</time>
      </trkpt>
      <trkpt lat="47.33842" lon="-2.41607">
        <ele>28.02</ele>
        <time>2017-08-05T13:11:06Z</time>
      </trkpt>
      <trkpt lat="47.33844" lon="-2.41595">
        <ele>26.09</ele>
        <time>2017-08-05T13:11:20Z</time>
      </trkpt>
      <trkpt lat="47.33846" lon="-2.41583">
        <ele>26.57</ele>
        <time>2017-08-05T13:11:29Z</time>
      </trkpt>
      <trkpt lat="47.33832" lon="-2.41579">
        <ele>25.13</ele>
        <time>2017-08-05T13:11:45Z</time>
      </trkpt>
      <trkpt lat="47.3383" lon="-2.41578">
        <ele>24.65</ele>
        <time>2017-08-05T13:11:48Z</time>
      </trkpt>
      <trkpt lat="47.33829" lon="-2.41582">
        <ele>24.65</ele>
        <time>2017-08-05T13:11:52Z</time>
      </trkpt>
      <trkpt lat="47.33831" lon="-2.41592">
        <ele>24.65</ele>
        <time>2017-08-05T13:11:59Z</time>
      </trkpt>
      <trkpt lat="47.33822" lon="-2.41594">
        <ele>27.53</ele>
        <time>2017-08-05T13:12:08Z</time>
      </trkpt>
      <trkpt lat="47.3382" lon="-2.4159">
        <ele>27.53</ele>
        <time>2017-08-05T13:12:12Z</time>
      </trkpt>
      <trkpt lat="47.33818" lon="-2.41592">
        <ele>29.46</ele>
        <time>2017-08-05T13:12:22Z</time>
      </trkpt>
      <trkpt lat="47.33816" lon="-2.41599">
        <ele>29.46</ele>
        <time>2017-08-05T13:12:27Z</time>
      </trkpt>
      <trkpt lat="47.33818" lon="-2.41609">
        <ele>28.5</ele>
        <time>2017-08-05T13:12:35Z</time>
      </trkpt>
      <trkpt lat="47.33815" lon="-2.41624">
        <ele>27.53</ele>
        <time>2017-08-05T13:12:45Z</time>
      </trkpt>
      <trkpt lat="47.3381" lon="-2.41624">
        <ele>27.05</ele>
        <time>2017-08-05T13:12:51Z</time>
      </trkpt>
      <trkpt lat="47.33801" lon="-2.41622">
        <ele>28.02</ele>
        <time>2017-08-05T13:13:04Z</time>
      </trkpt>
      <trkpt lat="47.338" lon="-2.41623">
        <ele>28.98</ele>
        <time>2017-08-05T13:13:28Z</time>
      </trkpt>
      <trkpt lat="47.338" lon="-2.41623">
        <ele>30.42</ele>
        <time>2017-08-05T13:13:55Z</time>
      </trkpt>
      <trkpt lat="47.338" lon="-2.41623">
        <ele>31.38</ele>
        <time>2017-08-05T13:14:29Z</time>
      </trkpt>
      <trkpt lat="47.33799" lon="-2.41623">
        <ele>31.86</ele>
        <time>2017-08-05T13:14:52Z</time>
      </trkpt>
      <trkpt lat="47.33799" lon="-2.41623">
        <ele>32.34</ele>
        <time>2017-08-05T13:15:24Z</time>
      </trkpt>
      <trkpt lat="47.33799" lon="-2.41623">
        <ele>32.82</ele>
        <time>2017-08-05T13:15:55Z</time>
      </trkpt>
      <trkpt lat="47.338" lon="-2.41623">
        <ele>32.82</ele>
        <time>2017-08-05T13:16:13Z</time>
      </trkpt>
      <trkpt lat="47.338" lon="-2.41624">
        <ele>33.3</ele>
        <time>2017-08-05T13:16:36Z</time>
      </trkpt>
      <trkpt lat="47.33799" lon="-2.41623">
        <ele>33.3</ele>
        <time>2017-08-05T13:16:51Z</time>
      </trkpt>
      <trkpt lat="47.33799" lon="-2.41623">
        <ele>33.3</ele>
        <time>2017-08-05T13:17:08Z</time>
      </trkpt>
      <trkpt lat="47.33798" lon="-2.41626">
        <ele>33.3</ele>
        <time>2017-08-05T13:17:23Z</time>
      </trkpt>
      <trkpt lat="47.33797" lon="-2.41624">
        <ele>33.3</ele>
        <time>2017-08-05T13:17:30Z</time>
      </trkpt>
      <trkpt lat="47.33797" lon="-2.41615">
        <ele>33.3</ele>
        <time>2017-08-05T13:17:36Z</time>
      </trkpt>
      <trkpt lat="47.33796" lon="-2.4161">
        <ele>33.3</ele>
        <time>2017-08-05T13:17:40Z</time>
      </trkpt>
      <trkpt lat="47.33791" lon="-2.41603">
        <ele>33.78</ele>
        <time>2017-08-05T13:17:54Z</time>
      </trkpt>
      <trkpt lat="47.33798" lon="-2.41599">
        <ele>33.3</ele>
        <time>2017-08-05T13:18:11Z</time>
      </trkpt>
      <trkpt lat="47.33794" lon="-2.41592">
        <ele>32.82</ele>
        <time>2017-08-05T13:18:19Z</time>
      </trkpt>
      <trkpt lat="47.33785" lon="-2.41587">
        <ele>31.38</ele>
        <time>2017-08-05T13:18:33Z</time>
      </trkpt>
      <trkpt lat="47.33778" lon="-2.41586">
        <ele>30.9</ele>
        <time>2017-08-05T13:18:42Z</time>
      </trkpt>
      <trkpt lat="47.33773" lon="-2.41601">
        <ele>31.38</ele>
        <time>2017-08-05T13:18:56Z</time>
      </trkpt>
      <trkpt lat="47.33772" lon="-2.41607">
        <ele>31.38</ele>
        <time>2017-08-05T13:19:00Z</time>
      </trkpt>
      <trkpt lat="47.33773" lon="-2.41622">
        <ele>33.3</ele>
        <time>2017-08-05T13:19:14Z</time>
      </trkpt>
      <trkpt lat="47.33767" lon="-2.41633">
        <ele>34.26</ele>
        <time>2017-08-05T13:19:27Z</time>
      </trkpt>
      <trkpt lat="47.33764" lon="-2.41637">
        <ele>34.74</ele>
        <time>2017-08-05T13:19:31Z</time>
      </trkpt>
      <trkpt lat="47.33762" lon="-2.41642">
        <ele>35.23</ele>
        <time>2017-08-05T13:19:34Z</time>
      </trkpt>
      <trkpt lat="47.33748" lon="-2.41647">
        <ele>34.74</ele>
        <time>2017-08-05T13:19:47Z</time>
      </trkpt>
      <trkpt lat="47.33751" lon="-2.41664">
        <ele>35.23</ele>
        <time>2017-08-05T13:20:02Z</time>
      </trkpt>
      <trkpt lat="47.33751" lon="-2.41668">
        <ele>35.71</ele>
        <time>2017-08-05T13:20:24Z</time>
      </trkpt>
      <trkpt lat="47.33751" lon="-2.41669">
        <ele>36.19</ele>
        <time>2017-08-05T13:20:46Z</time>
      </trkpt>
      <trkpt lat="47.33751" lon="-2.41669">
        <ele>36.19</ele>
        <time>2017-08-05T13:21:04Z</time>
      </trkpt>
      <trkpt lat="47.33751" lon="-2.4167">
        <ele>36.67</ele>
        <time>2017-08-05T13:21:27Z</time>
      </trkpt>
      <trkpt lat="47.33751" lon="-2.41667">
        <ele>36.19</ele>
        <time>2017-08-05T13:21:39Z</time>
      </trkpt>
      <trkpt lat="47.33751" lon="-2.41667">
        <ele>36.67</ele>
        <time>2017-08-05T13:21:53Z</time>
      </trkpt>
      <trkpt lat="47.33751" lon="-2.41668">
        <ele>36.67</ele>
        <time>2017-08-05T13:22:10Z</time>
      </trkpt>
      <trkpt lat="47.33752" lon="-2.4167">
        <ele>36.67</ele>
        <time>2017-08-05T13:22:26Z</time>
      </trkpt>
      <trkpt lat="47.33752" lon="-2.41669">
        <ele>36.19</ele>
        <time>2017-08-05T13:22:48Z</time>
      </trkpt>
      <trkpt lat="47.33751" lon="-2.41669">
        <ele>36.19</ele>
        <time>2017-08-05T13:23:06Z</time>
      </trkpt>
      <trkpt lat="47.33752" lon="-2.41669">
        <ele>36.67</ele>
        <time>2017-08-05T13:23:24Z</time>
      </trkpt>
      <trkpt lat="47.33752" lon="-2.4167">
        <ele>36.67</ele>
        <time>2017-08-05T13:23:34Z</time>
      </trkpt>
      <trkpt lat="47.33752" lon="-2.4167">
        <ele>36.67</ele>
        <time>2017-08-05T13:23:51Z</time>
      </trkpt>
      <trkpt lat="47.33751" lon="-2.41669">
        <ele>36.67</ele>
        <time>2017-08-05T13:24:07Z</time>
      </trkpt>
      <trkpt lat="47.33751" lon="-2.41668">
        <ele>35.71</ele>
        <time>2017-08-05T13:24:17Z</time>
      </trkpt>
      <trkpt lat="47.33753" lon="-2.41667">
        <ele>35.23</ele>
        <time>2017-08-05T13:24:33Z</time>
      </trkpt>
      <trkpt lat="47.33752" lon="-2.41669">
        <ele>34.74</ele>
        <time>2017-08-05T13:24:44Z</time>
      </trkpt>
      <trkpt lat="47.33751" lon="-2.41669">
        <ele>34.74</ele>
        <time>2017-08-05T13:24:58Z</time>
      </trkpt>
      <trkpt lat="47.33753" lon="-2.4167">
        <ele>34.74</ele>
        <time>2017-08-05T13:25:13Z</time>
      </trkpt>
      <trkpt lat="47.33753" lon="-2.4167">
        <ele>35.23</ele>
        <time>2017-08-05T13:25:30Z</time>
      </trkpt>
      <trkpt lat="47.33755" lon="-2.41668">
        <ele>35.71</ele>
        <time>2017-08-05T13:25:45Z</time>
      </trkpt>
      <trkpt lat="47.33762" lon="-2.41671">
        <ele>34.74</ele>
        <time>2017-08-05T13:26:00Z</time>
      </trkpt>
      <trkpt lat="47.33762" lon="-2.41672">
        <ele>34.74</ele>
        <time>2017-08-05T13:26:29Z</time>
      </trkpt>
      <trkpt lat="47.33763" lon="-2.41673">
        <ele>34.26</ele>
        <time>2017-08-05T13:26:42Z</time>
      </trkpt>
      <trkpt lat="47.33762" lon="-2.41679">
        <ele>33.78</ele>
        <time>2017-08-05T13:26:49Z</time>
      </trkpt>
      <trkpt lat="47.33757" lon="-2.41683">
        <ele>33.3</ele>
        <time>2017-08-05T13:26:55Z</time>
      </trkpt>
      <trkpt lat="47.3376" lon="-2.41693">
        <ele>32.82</ele>
        <time>2017-08-05T13:27:07Z</time>
      </trkpt>
      <trkpt lat="47.33761" lon="-2.41703">
        <ele>32.34</ele>
        <time>2017-08-05T13:27:22Z</time>
      </trkpt>
      <trkpt lat="47.33766" lon="-2.41711">
        <ele>32.34</ele>
        <time>2017-08-05T13:27:30Z</time>
      </trkpt>
      <trkpt lat="47.33769" lon="-2.41707">
        <ele>32.34</ele>
        <time>2017-08-05T13:27:34Z</time>
      </trkpt>
      <trkpt lat="47.33773" lon="-2.41709">
        <ele>33.3</ele>
        <time>2017-08-05T13:27:39Z</time>
      </trkpt>
      <trkpt lat="47.33776" lon="-2.41715">
        <ele>33.78</ele>
        <time>2017-08-05T13:27:44Z</time>
      </trkpt>
      <trkpt lat="47.33778" lon="-2.41714">
        <ele>34.26</ele>
        <time>2017-08-05T13:28:03Z</time>
      </trkpt>
      <trkpt lat="47.33783" lon="-2.41714">
        <ele>33.78</ele>
        <time>2017-08-05T13:28:09Z</time>
      </trkpt>
      <trkpt lat="47.33787" lon="-2.41709">
        <ele>33.3</ele>
        <time>2017-08-05T13:28:15Z</time>
      </trkpt>
      <trkpt lat="47.33794" lon="-2.41719">
        <ele>33.3</ele>
        <time>2017-08-05T13:28:24Z</time>
      </trkpt>
      <trkpt lat="47.338" lon="-2.41717">
        <ele>34.74</ele>
        <time>2017-08-05T13:28:37Z</time>
      </trkpt>
      <trkpt lat="47.33803" lon="-2.41722">
        <ele>35.23</ele>
        <time>2017-08-05T13:28:42Z</time>
      </trkpt>
      <trkpt lat="47.33804" lon="-2.41725">
        <ele>35.23</ele>
        <time>2017-08-05T13:28:44Z</time>
      </trkpt>
      <trkpt lat="47.33811" lon="-2.41719">
        <ele>34.74</ele>
        <time>2017-08-05T13:28:56Z</time>
      </trkpt>
      <trkpt lat="47.33812" lon="-2.41721">
        <ele>35.71</ele>
        <time>2017-08-05T13:29:32Z</time>
      </trkpt>
      <trkpt lat="47.33812" lon="-2.41721">
        <ele>36.19</ele>
        <time>2017-08-05T13:30:05Z</time>
      </trkpt>
      <trkpt lat="47.3381" lon="-2.41711">
        <ele>35.71</ele>
        <time>2017-08-05T13:30:15Z</time>
      </trkpt>
      <trkpt lat="47.33805" lon="-2.41707">
        <ele>35.23</ele>
        <time>2017-08-05T13:30:23Z</time>
      </trkpt>
      <trkpt lat="47.33801" lon="-2.41702">
        <ele>34.74</ele>
        <time>2017-08-05T13:30:38Z</time>
      </trkpt>
      <trkpt lat="47.33801" lon="-2.41702">
        <ele>34.74</ele>
        <time>2017-08-05T13:30:40Z</time>
      </trkpt>
      <trkpt lat="47.33794" lon="-2.41703">
        <ele>35.23</ele>
        <time>2017-08-05T13:30:54Z</time>
      </trkpt>
      <trkpt lat="47.338" lon="-2.41698">
        <ele>34.26</ele>
        <time>2017-08-05T13:31:04Z</time>
      </trkpt>
      <trkpt lat="47.33802" lon="-2.41701">
        <ele>33.78</ele>
        <time>2017-08-05T13:31:06Z</time>
      </trkpt>
      <trkpt lat="47.33805" lon="-2.41704">
        <ele>33.78</ele>
        <time>2017-08-05T13:31:09Z</time>
      </trkpt>
      <trkpt lat="47.33809" lon="-2.41716">
        <ele>33.78</ele>
        <time>2017-08-05T13:31:17Z</time>
      </trkpt>
      <trkpt lat="47.33813" lon="-2.4172">
        <ele>34.74</ele>
        <time>2017-08-05T13:31:24Z</time>
      </trkpt>
      <trkpt lat="47.33818" lon="-2.41723">
        <ele>36.19</ele>
        <time>2017-08-05T13:31:29Z</time>
      </trkpt>
      <trkpt lat="47.33821" lon="-2.41732">
        <ele>38.59</ele>
        <time>2017-08-05T13:31:43Z</time>
      </trkpt>
      <trkpt lat="47.33821" lon="-2.41732">
        <ele>39.07</ele>
        <time>2017-08-05T13:32:04Z</time>
      </trkpt>
      <trkpt lat="47.33822" lon="-2.41731">
        <ele>39.55</ele>
        <time>2017-08-05T13:32:30Z</time>
      </trkpt>
      <trkpt lat="47.33822" lon="-2.41732">
        <ele>40.03</ele>
        <time>2017-08-05T13:32:49Z</time>
      </trkpt>
      <trkpt lat="47.33822" lon="-2.41732">
        <ele>40.51</ele>
        <time>2017-08-05T13:33:09Z</time>
      </trkpt>
      <trkpt lat="47.33822" lon="-2.41732">
        <ele>40.51</ele>
        <time>2017-08-05T13:33:31Z</time>
      </trkpt>
    </trkseg>
  </trk>
</gpx>